createdAt,value
2023-01-10T00:01:44.005Z,0.80
2023-01-10T00:04:13.314Z,0.83
2023-01-10T00:06:42.496Z,0.83
2023-01-10T00:09:10.908Z,0.70
2023-01-10T00:11:58.492Z,0.90
2023-01-10T00:14:28.688Z,0.80
2023-01-10T00:16:57.860Z,0.95
2023-01-10T00:19:24.740Z,0.80
2023-01-10T00:21:57.406Z,0.60
2023-01-10T00:24:26.402Z,0.83
2023-01-10T00:26:53.215Z,0.70
2023-01-10T00:29:27.953Z,0.80
2023-01-10T00:31:55.430Z,0.60
2023-01-10T00:34:24.292Z,0.60
2023-01-10T00:36:53.279Z,0.60
2023-01-10T00:39:20.743Z,0.50
2023-01-10T00:42:08.338Z,0.70
2023-01-10T00:44:37.544Z,0.60
2023-01-10T00:47:04.337Z,0.80
2023-01-10T00:49:31.027Z,0.70
2023-01-10T00:51:59.535Z,0.77
2023-01-10T00:54:26.369Z,0.50
2023-01-10T00:56:53.056Z,0.53
2023-01-10T00:59:19.779Z,0.57
2023-01-10T01:01:46.656Z,0.60
2023-01-10T01:04:15.751Z,0.60
2023-01-10T01:06:47.494Z,0.60
2023-01-10T01:09:17.348Z,0.57
2023-01-10T01:11:43.982Z,0.30
2023-01-10T01:14:12.845Z,0.57
2023-01-10T01:16:39.563Z,0.50
2023-01-10T01:19:06.276Z,0.60
2023-01-10T01:21:32.900Z,0.37
2023-01-10T01:23:59.730Z,0.50
2023-01-10T01:26:26.565Z,0.60
2023-01-10T01:28:53.220Z,0.33
2023-01-10T01:31:24.590Z,0.67
2023-01-10T01:33:51.604Z,0.50
2023-01-10T01:36:22.714Z,0.60
2023-01-10T01:38:51.862Z,0.57
2023-01-10T01:41:37.139Z,0.60
2023-01-10T01:44:03.823Z,0.67
2023-01-10T01:46:33.576Z,0.40
2023-01-10T01:49:00.486Z,0.60
2023-01-10T01:51:33.298Z,0.40
2023-01-10T01:54:07.481Z,0.40
2023-01-10T01:56:43.052Z,0.40
2023-01-10T01:59:20.394Z,0.43
2023-01-10T02:01:50.473Z,0.60
2023-01-10T02:04:30.393Z,0.70
2023-01-10T02:07:01.888Z,0.73
2023-01-10T02:09:39.235Z,0.50
2023-01-10T02:12:08.459Z,0.60
2023-01-10T02:14:40.245Z,0.60
2023-01-10T02:17:10.364Z,0.63
2023-01-10T02:19:52.942Z,0.43
2023-01-10T02:22:35.213Z,0.73
2023-01-10T02:25:42.496Z,0.53
2023-01-10T02:28:49.143Z,0.73
2023-01-10T02:31:49.434Z,0.40
2023-01-10T02:34:21.920Z,0.40
2023-01-10T02:37:22.259Z,0.47
2023-01-10T02:39:57.162Z,0.40
2023-01-10T02:42:54.606Z,0.40
2023-01-10T02:45:21.180Z,0.57
2023-01-10T02:47:47.794Z,0.60
2023-01-10T02:50:43.595Z,0.50
2023-01-10T02:53:15.850Z,0.50
2023-01-10T02:55:51.620Z,0.50
2023-01-10T02:58:39.289Z,0.57
2023-01-10T03:01:20.805Z,0.37
2023-01-10T03:03:56.392Z,0.45
2023-01-10T03:06:28.819Z,0.50
2023-01-10T03:09:09.871Z,0.27
2023-01-10T03:11:42.226Z,0.80
2023-01-10T03:14:22.865Z,0.37
2023-01-10T03:16:58.456Z,0.50
2023-01-10T03:19:29.901Z,0.50
2023-01-10T03:21:59.531Z,0.40
2023-01-10T03:24:46.849Z,0.43
2023-01-10T03:27:31.420Z,0.50
2023-01-10T03:30:22.758Z,0.20
2023-01-10T03:32:52.792Z,0.40
2023-01-10T03:35:21.826Z,0.40
2023-01-10T03:38:09.264Z,0.37
2023-01-10T03:40:41.641Z,0.40
2023-01-10T03:43:48.636Z,0.40
2023-01-10T03:46:35.364Z,0.23
2023-01-10T03:49:09.255Z,0.20
2023-01-10T03:51:39.050Z,0.30
2023-01-10T03:54:08.217Z,0.20
2023-01-10T03:56:49.816Z,0.30
2023-01-10T03:59:23.358Z,0.20
2023-01-10T04:01:52.767Z,0.40
2023-01-10T04:04:19.654Z,0.40
2023-01-10T04:06:46.395Z,0.40
2023-01-10T04:09:15.635Z,0.40
2023-01-10T04:11:42.300Z,0.40
2023-01-10T04:14:08.986Z,0.30
2023-01-10T04:16:37.879Z,0.30
2023-01-10T04:19:04.549Z,0.40
2023-01-10T04:21:33.558Z,0.40
2023-01-10T04:24:00.225Z,0.30
2023-01-10T04:26:26.974Z,0.20
2023-01-10T04:28:53.607Z,0.30
2023-01-10T04:31:20.412Z,0.30
2023-01-10T04:33:49.295Z,0.30
2023-01-10T04:36:15.955Z,0.20
2023-01-10T04:38:45.153Z,0.33
2023-01-10T04:41:16.552Z,0.40
2023-01-10T04:43:45.382Z,0.50
2023-01-10T04:46:12.066Z,0.40
2023-01-10T04:48:41.401Z,0.53
2023-01-10T04:51:10.345Z,0.50
2023-01-10T04:53:37.080Z,0.67
2023-01-10T04:56:05.672Z,0.95
2023-01-10T04:58:36.986Z,1.30
2023-01-10T05:01:15.379Z,1.00
2023-01-10T05:03:42.653Z,1.10
2023-01-10T05:06:09.690Z,1.30
2023-01-10T05:08:36.596Z,1.52
2023-01-10T05:11:03.331Z,1.50
2023-01-10T05:13:32.499Z,1.33
2023-01-10T05:15:59.727Z,1.50
2023-01-10T05:18:27.787Z,1.10
2023-01-10T05:21:10.078Z,1.30
2023-01-10T05:23:37.661Z,1.37
2023-01-10T05:26:15.949Z,1.60
2023-01-10T05:28:43.347Z,1.60
2023-01-10T05:31:13.866Z,1.30
2023-01-10T05:33:45.401Z,1.37
2023-01-10T05:36:12.175Z,1.53
2023-01-10T05:38:41.166Z,1.37
2023-01-10T05:41:10.501Z,1.40
2023-01-10T05:43:37.366Z,1.40
2023-01-10T05:46:06.538Z,1.23
2023-01-10T05:48:33.379Z,1.37
2023-01-10T05:51:00.293Z,1.30
2023-01-10T05:53:27.389Z,1.60
2023-01-10T05:55:59.371Z,1.67
2023-01-10T05:58:29.613Z,1.48
2023-01-10T06:00:57.620Z,1.57
2023-01-10T06:03:26.483Z,1.60
2023-01-10T06:05:56.742Z,1.70
2023-01-10T06:08:24.162Z,1.50
2023-01-10T06:10:51.413Z,1.43
2023-01-10T06:13:18.123Z,1.77
2023-01-10T06:15:44.953Z,1.40
2023-01-10T06:18:14.303Z,1.40
2023-01-10T06:20:43.906Z,1.60
2023-01-10T06:23:11.002Z,1.80
2023-01-10T06:25:40.572Z,1.60
2023-01-10T06:28:12.476Z,2.20
2023-01-10T06:30:41.989Z,1.88
2023-01-10T06:33:09.977Z,1.90
2023-01-10T06:35:37.061Z,1.80
2023-01-10T06:38:06.196Z,1.80
2023-01-10T06:40:35.214Z,2.40
2023-01-10T06:43:03.975Z,2.50
2023-01-10T06:45:31.040Z,2.67
2023-01-10T06:47:58.028Z,2.37
2023-01-10T06:50:27.575Z,1.70
2023-01-10T06:53:02.746Z,1.80
2023-01-10T06:55:30.367Z,1.80
2023-01-10T06:57:59.094Z,1.83
2023-01-10T07:00:29.133Z,2.13
2023-01-10T07:02:58.742Z,1.83
2023-01-10T07:05:25.562Z,1.90
2023-01-10T07:07:52.717Z,1.90
2023-01-10T07:10:21.916Z,2.07
2023-01-10T07:12:54.222Z,2.03
2023-01-10T07:15:21.081Z,1.87
2023-01-10T07:17:47.862Z,1.70
2023-01-10T07:20:14.604Z,1.70
2023-01-10T07:22:44.095Z,1.80
2023-01-10T07:25:13.242Z,2.27
2023-01-10T07:27:43.264Z,2.07
2023-01-10T07:30:12.656Z,1.60
2023-01-10T07:32:39.763Z,2.15
2023-01-10T07:35:09.305Z,1.77
2023-01-10T07:37:36.016Z,1.80
2023-01-10T07:40:05.401Z,1.90
2023-01-10T07:42:34.235Z,1.77
2023-01-10T07:45:03.216Z,1.98
2023-01-10T07:47:32.444Z,1.70
2023-01-10T07:49:59.196Z,2.13
2023-01-10T07:52:28.016Z,1.97
2023-01-10T07:54:56.914Z,2.00
2023-01-10T07:57:23.532Z,2.50
2023-01-10T07:59:52.565Z,1.93
2023-01-10T08:02:19.373Z,2.67
2023-01-10T08:04:46.153Z,2.37
2023-01-10T08:07:12.869Z,2.00
2023-01-10T08:09:41.652Z,2.10
2023-01-10T08:12:10.815Z,2.13
2023-01-10T08:14:39.928Z,2.20
2023-01-10T08:17:06.985Z,2.10
2023-01-10T08:19:33.751Z,2.00
2023-01-10T08:22:03.164Z,2.03
2023-01-10T08:24:29.880Z,2.20
2023-01-10T08:27:00.951Z,2.00
2023-01-10T08:29:30.518Z,2.00
2023-01-10T08:31:57.350Z,2.50
2023-01-10T08:34:24.686Z,2.20
2023-01-10T08:36:54.941Z,2.73
2023-01-10T08:39:22.433Z,2.80
2023-01-10T08:41:49.640Z,3.77
2023-01-10T08:44:16.636Z,4.80
2023-01-10T08:46:43.355Z,4.17
2023-01-10T08:49:10.090Z,6.20
2023-01-10T08:51:36.859Z,10.77
2023-01-10T08:54:03.575Z,9.00
2023-01-10T08:56:32.540Z,9.83
2023-01-10T08:59:03.875Z,8.67
2023-01-10T09:01:30.660Z,8.67
2023-01-10T09:03:59.828Z,7.97
2023-01-10T09:06:29.025Z,8.20
2023-01-10T09:08:55.735Z,7.13
2023-01-10T09:11:26.823Z,6.23
2023-01-10T09:13:53.498Z,6.30
2023-01-10T09:16:20.162Z,6.57
2023-01-10T09:18:46.964Z,6.50
2023-01-10T09:21:18.206Z,5.33
2023-01-10T09:23:44.948Z,5.83
2023-01-10T09:26:11.654Z,5.73
2023-01-10T09:28:38.348Z,5.43
2023-01-10T09:31:07.804Z,5.73
2023-01-10T09:33:46.199Z,5.33
2023-01-10T09:36:15.402Z,5.23
2023-01-10T09:38:44.662Z,5.30
2023-01-10T09:41:14.271Z,5.00
2023-01-10T09:44:04.865Z,4.53
2023-01-10T09:46:47.625Z,4.93
2023-01-10T09:49:20.045Z,4.27
2023-01-10T09:51:50.036Z,3.90
2023-01-10T09:54:29.887Z,4.90
2023-01-10T09:56:59.548Z,4.80
2023-01-10T09:59:34.648Z,3.93
2023-01-10T10:02:21.969Z,3.80
2023-01-10T10:05:04.501Z,3.37
2023-01-10T10:07:33.604Z,3.33
2023-01-10T10:10:02.466Z,3.47
2023-01-10T10:13:03.369Z,3.00
2023-01-10T10:15:40.483Z,3.53
2023-01-10T10:18:17.101Z,3.67
2023-01-10T10:20:55.702Z,3.65
2023-01-10T10:23:33.360Z,3.27
2023-01-10T10:26:02.658Z,3.50
2023-01-10T10:28:54.623Z,3.23
2023-01-10T10:31:30.692Z,3.17
2023-01-10T10:34:20.658Z,3.17
2023-01-10T10:37:04.174Z,2.97
2023-01-10T10:39:56.857Z,3.13
2023-01-10T10:42:30.375Z,2.50
2023-01-10T10:45:10.640Z,3.10
2023-01-10T10:47:49.935Z,2.13
2023-01-10T10:50:45.691Z,2.78
2023-01-10T10:53:12.456Z,2.93
2023-01-10T10:55:39.469Z,2.47
2023-01-10T10:58:07.681Z,2.57
2023-01-10T11:00:37.207Z,2.40
2023-01-10T11:03:18.741Z,2.50
2023-01-10T11:05:47.767Z,2.30
2023-01-10T11:08:17.153Z,2.50
2023-01-10T11:10:48.062Z,2.57
2023-01-10T11:13:54.101Z,2.60
2023-01-10T11:16:41.739Z,2.40
2023-01-10T11:19:30.144Z,2.50
2023-01-10T11:22:08.039Z,2.10
2023-01-10T11:24:57.965Z,2.00
2023-01-10T11:27:30.919Z,2.27
2023-01-10T11:30:03.543Z,2.40
2023-01-10T11:32:49.365Z,2.43
2023-01-10T11:35:27.511Z,1.90
2023-01-10T11:38:06.226Z,1.93
2023-01-10T11:40:36.212Z,2.20
2023-01-10T11:43:27.975Z,1.83
2023-01-10T11:46:16.305Z,1.97
2023-01-10T11:49:06.884Z,2.22
2023-01-10T11:51:45.839Z,1.80
2023-01-10T11:54:27.401Z,1.60
2023-01-10T11:57:02.231Z,1.90
2023-01-10T11:59:29.615Z,2.10
2023-01-10T12:02:36.967Z,2.20
2023-01-10T12:05:11.219Z,1.70
2023-01-10T12:08:06.312Z,1.90
2023-01-10T12:10:36.568Z,1.70
2023-01-10T12:13:16.970Z,1.37
2023-01-10T12:15:43.689Z,1.53
2023-01-10T12:18:11.998Z,1.80
2023-01-10T12:20:49.546Z,1.70
2023-01-10T12:23:23.774Z,1.60
2023-01-10T12:25:55.250Z,1.33
2023-01-10T12:28:30.702Z,1.20
2023-01-10T12:31:02.495Z,1.60
2023-01-10T12:33:35.073Z,1.80
2023-01-10T12:36:10.925Z,1.80
2023-01-10T12:39:05.659Z,1.43
2023-01-10T12:42:13.523Z,1.60
2023-01-10T12:44:45.400Z,1.60
2023-01-10T12:47:22.525Z,2.00
2023-01-10T12:50:22.158Z,1.83
2023-01-10T12:52:56.253Z,1.80
2023-01-10T12:55:27.402Z,1.90
2023-01-10T12:57:59.588Z,2.00
2023-01-10T13:00:48.172Z,1.60
2023-01-10T13:03:24.713Z,2.07
2023-01-10T13:05:54.210Z,2.43
2023-01-10T13:08:25.472Z,1.50
2023-01-10T13:10:55.446Z,2.17
2023-01-10T13:13:50.016Z,1.80
2023-01-10T13:16:47.986Z,2.03
2023-01-10T13:19:14.948Z,1.60
2023-01-10T13:21:45.786Z,1.73
2023-01-10T13:24:15.424Z,2.13
2023-01-10T13:26:59.089Z,1.73
2023-01-10T13:29:38.471Z,2.47
2023-01-10T13:32:25.403Z,2.37
2023-01-10T13:35:09.689Z,2.53
2023-01-10T13:37:40.147Z,1.80
2023-01-10T13:40:21.233Z,1.50
2023-01-10T13:43:33.407Z,1.60
2023-01-10T13:46:15.089Z,1.97
2023-01-10T13:49:03.382Z,2.20
2023-01-10T13:51:31.140Z,2.00
2023-01-10T13:54:16.119Z,2.03
2023-01-10T13:56:46.115Z,2.43
2023-01-10T13:59:53.300Z,2.43
2023-01-10T14:02:32.068Z,2.97
2023-01-10T14:05:04.591Z,2.90
2023-01-10T14:07:43.176Z,2.30
2023-01-10T14:10:38.601Z,3.00
2023-01-10T14:13:20.244Z,2.77
2023-01-10T14:15:49.286Z,2.50
2023-01-10T14:18:19.309Z,2.70
2023-01-10T14:21:00.793Z,2.23
2023-01-10T14:23:34.735Z,2.00
2023-01-10T14:26:02.344Z,2.60
2023-01-10T14:28:32.805Z,2.40
2023-01-10T14:31:20.057Z,2.13
2023-01-10T14:33:50.214Z,2.55
2023-01-10T14:36:22.332Z,2.20
2023-01-10T14:38:52.744Z,2.23
2023-01-10T14:41:31.274Z,2.27
2023-01-10T14:44:13.040Z,6.10
2023-01-10T14:46:54.339Z,7.73
2023-01-10T14:49:20.981Z,9.00
2023-01-10T14:51:50.769Z,12.30
2023-01-10T14:54:20.223Z,22.93
2023-01-10T14:56:51.342Z,12.43
2023-01-10T14:59:29.680Z,12.10
2023-01-10T15:02:03.441Z,11.25
2023-01-10T15:04:36.183Z,9.67
2023-01-10T15:07:12.474Z,7.53
2023-01-10T15:09:39.317Z,7.23
2023-01-10T15:12:12.334Z,7.50
2023-01-10T15:14:39.201Z,6.33
2023-01-10T15:17:09.081Z,5.53
2023-01-10T15:19:38.150Z,5.27
2023-01-10T15:22:28.835Z,5.50
2023-01-10T15:25:18.788Z,5.23
2023-01-10T15:27:50.128Z,4.83
2023-01-10T15:30:25.740Z,4.33
2023-01-10T15:32:57.742Z,4.67
2023-01-10T15:35:36.263Z,4.00
2023-01-10T15:38:08.106Z,3.70
2023-01-10T15:40:39.968Z,3.13
2023-01-10T15:43:18.821Z,3.53
2023-01-10T15:45:46.613Z,3.20
2023-01-10T15:48:29.545Z,3.10
2023-01-10T15:51:15.357Z,3.40
2023-01-10T15:54:03.761Z,3.10
2023-01-10T15:56:50.630Z,3.47
2023-01-10T15:59:41.521Z,3.00
2023-01-10T16:02:33.588Z,3.33
2023-01-10T16:05:18.228Z,3.20
2023-01-10T16:07:50.266Z,3.27
2023-01-10T16:10:29.688Z,3.10
2023-01-10T16:13:28.833Z,3.35
2023-01-10T16:15:58.753Z,3.17
2023-01-10T16:18:26.635Z,3.00
2023-01-10T16:20:56.888Z,3.53
2023-01-10T16:23:35.337Z,3.70
2023-01-10T16:26:06.470Z,3.40
2023-01-10T16:28:37.350Z,3.40
2023-01-10T16:31:06.844Z,3.42
2023-01-10T16:33:37.482Z,3.90
2023-01-10T16:36:06.978Z,3.70
2023-01-10T16:38:35.022Z,3.53
2023-01-10T16:41:25.089Z,4.10
2023-01-10T16:43:51.976Z,4.65
2023-01-10T16:46:18.788Z,6.30
2023-01-10T16:48:49.949Z,5.00
2023-01-10T16:51:18.374Z,4.47
2023-01-10T16:53:45.762Z,4.30
2023-01-10T16:56:18.061Z,4.47
2023-01-10T16:58:48.513Z,4.50
2023-01-10T17:01:24.643Z,5.93
2023-01-10T17:03:51.752Z,4.73
2023-01-10T17:06:21.095Z,4.60
2023-01-10T17:08:49.873Z,5.00
2023-01-10T17:11:20.896Z,4.40
2023-01-10T17:13:47.777Z,4.40
2023-01-10T17:16:19.894Z,5.20
2023-01-10T17:18:47.490Z,5.17
2023-01-10T17:21:21.936Z,5.40
2023-01-10T17:23:51.282Z,5.40
2023-01-10T17:26:19.487Z,5.83
2023-01-10T17:28:48.428Z,4.73
2023-01-10T17:31:19.590Z,5.18
2023-01-10T17:33:46.768Z,4.90
2023-01-10T17:36:13.490Z,4.50
2023-01-10T17:38:43.163Z,4.67
2023-01-10T17:41:10.112Z,3.80
2023-01-10T17:43:39.553Z,4.30
2023-01-10T17:46:07.104Z,3.73
2023-01-10T17:48:34.816Z,4.00
2023-01-10T17:51:05.472Z,3.87
2023-01-10T17:53:32.147Z,3.50
2023-01-10T17:56:03.373Z,3.50
2023-01-10T17:58:31.220Z,3.40
2023-01-10T18:01:00.243Z,4.22
2023-01-10T18:03:29.202Z,3.60
2023-01-10T18:05:57.834Z,4.60
2023-01-10T18:08:27.602Z,4.87
2023-01-10T18:11:03.513Z,3.90
2023-01-10T18:13:32.430Z,4.10
2023-01-10T18:16:02.010Z,4.53
2023-01-10T18:18:29.829Z,3.30
2023-01-10T18:21:00.824Z,3.40
2023-01-10T18:23:28.396Z,3.87
2023-01-10T18:26:09.088Z,3.50
2023-01-10T18:28:41.673Z,3.23
2023-01-10T18:31:15.928Z,3.70
2023-01-10T18:33:43.430Z,3.23
2023-01-10T18:36:15.012Z,9.47
2023-01-10T18:38:42.430Z,8.37
2023-01-10T18:41:11.873Z,8.20
2023-01-10T18:43:39.366Z,6.87
2023-01-10T18:46:09.380Z,6.70
2023-01-10T18:48:36.379Z,6.50
2023-01-10T18:51:06.275Z,6.07
2023-01-10T18:53:33.223Z,5.40
2023-01-10T18:56:02.127Z,6.10
2023-01-10T18:58:34.733Z,5.57
2023-01-10T19:01:16.970Z,4.90
2023-01-10T19:03:44.276Z,4.27
2023-01-10T19:06:16.408Z,3.37
2023-01-10T19:08:44.230Z,3.50
2023-01-10T19:11:14.539Z,4.33
2023-01-10T19:13:45.617Z,3.60
2023-01-10T19:16:16.866Z,3.60
2023-01-10T19:18:44.451Z,3.97
2023-01-10T19:21:17.675Z,4.20
2023-01-10T19:23:46.167Z,3.53
2023-01-10T19:26:16.012Z,3.77
2023-01-10T19:28:43.258Z,3.83
2023-01-10T19:31:20.610Z,3.78
2023-01-10T19:33:48.203Z,3.77
2023-01-10T19:36:15.609Z,3.53
2023-01-10T19:38:42.628Z,3.70
2023-01-10T19:41:13.825Z,3.50
2023-01-10T19:43:40.809Z,3.95
2023-01-10T19:46:11.513Z,4.10
2023-01-10T19:48:38.857Z,3.70
2023-01-10T19:51:07.756Z,3.57
2023-01-10T19:53:36.880Z,3.17
2023-01-10T19:56:05.398Z,3.40
2023-01-10T19:58:32.891Z,3.60
2023-01-10T20:01:12.451Z,3.00
2023-01-10T20:03:42.122Z,2.97
2023-01-10T20:06:17.049Z,2.93
2023-01-10T20:08:47.490Z,2.70
2023-01-10T20:11:17.435Z,3.20
2023-01-10T20:13:45.278Z,2.90
2023-01-10T20:16:13.958Z,2.90
2023-01-10T20:18:41.320Z,2.80
2023-01-10T20:21:10.281Z,3.00
2023-01-10T20:23:38.672Z,2.93
2023-01-10T20:26:11.510Z,2.73
2023-01-10T20:28:41.510Z,2.80
2023-01-10T20:31:13.195Z,2.83
2023-01-10T20:33:39.989Z,3.20
2023-01-10T20:36:12.316Z,2.37
2023-01-10T20:38:39.625Z,2.43
2023-01-10T20:41:17.988Z,2.70
2023-01-10T20:43:47.108Z,2.50
2023-01-10T20:46:19.775Z,2.60
2023-01-10T20:48:47.622Z,2.50
2023-01-10T20:51:17.272Z,2.40
2023-01-10T20:53:44.649Z,2.43
2023-01-10T20:56:14.356Z,2.30
2023-01-10T20:58:41.220Z,2.47
2023-01-10T21:01:08.321Z,2.30
2023-01-10T21:03:34.997Z,2.30
2023-01-10T21:06:01.881Z,2.20
2023-01-10T21:08:31.723Z,1.77
2023-01-10T21:11:00.843Z,1.47
2023-01-10T21:13:27.585Z,1.60
2023-01-10T21:15:57.028Z,1.57
2023-01-10T21:18:26.779Z,1.87
2023-01-10T21:20:56.145Z,1.67
2023-01-10T21:23:24.889Z,1.63
2023-01-10T21:26:00.721Z,1.73
2023-01-10T21:28:27.445Z,1.43
2023-01-10T21:30:54.168Z,1.17
2023-01-10T21:33:23.145Z,1.80
2023-01-10T21:35:57.848Z,1.70
2023-01-10T21:38:28.673Z,1.27
2023-01-10T21:41:14.405Z,1.50
2023-01-10T21:43:45.197Z,1.57
2023-01-10T21:46:11.963Z,1.40
2023-01-10T21:48:41.141Z,1.60
2023-01-10T21:51:07.804Z,1.67
2023-01-10T21:53:34.476Z,1.53
2023-01-10T21:56:01.125Z,1.50
2023-01-10T21:58:27.841Z,1.47
2023-01-10T22:00:59.100Z,1.20
2023-01-10T22:03:26.146Z,1.20
2023-01-10T22:05:53.623Z,1.57
2023-01-10T22:08:20.351Z,1.60
2023-01-10T22:10:47.335Z,1.60
2023-01-10T22:13:18.746Z,1.13
2023-01-10T22:15:48.205Z,1.63
2023-01-10T22:18:14.873Z,1.37
2023-01-10T22:20:44.619Z,1.47
2023-01-10T22:23:11.307Z,1.60
2023-01-10T22:25:37.954Z,1.30
2023-01-10T22:28:04.709Z,1.40
2023-01-10T22:30:33.871Z,1.40
2023-01-10T22:33:02.786Z,1.40
2023-01-10T22:35:29.412Z,1.70
2023-01-10T22:37:56.658Z,1.50
2023-01-10T22:40:23.629Z,1.77
2023-01-10T22:42:54.407Z,1.63
2023-01-10T22:45:23.420Z,1.97
2023-01-10T22:47:50.499Z,1.60
2023-01-10T22:50:20.587Z,1.57
2023-01-10T22:52:50.802Z,1.53
2023-01-10T22:55:23.504Z,1.60
2023-01-10T22:57:50.183Z,1.47
2023-01-10T23:00:19.072Z,1.60
2023-01-10T23:02:45.825Z,1.50
2023-01-10T23:05:12.588Z,1.60
2023-01-10T23:07:39.239Z,1.50
2023-01-10T23:10:10.161Z,1.60
2023-01-10T23:12:44.109Z,1.17
2023-01-10T23:15:13.721Z,1.40
2023-01-10T23:17:42.848Z,1.20
2023-01-10T23:20:12.271Z,1.33
2023-01-10T23:22:41.089Z,1.48
2023-01-10T23:25:07.993Z,1.20
2023-01-10T23:27:34.679Z,1.30
2023-01-10T23:30:03.926Z,1.30
2023-01-10T23:32:30.608Z,1.37
2023-01-10T23:34:59.487Z,0.97
2023-01-10T23:37:26.123Z,1.38
2023-01-10T23:39:52.800Z,1.57
2023-01-10T23:42:19.543Z,1.30
2023-01-10T23:44:48.371Z,1.20
2023-01-10T23:47:15.263Z,1.30
2023-01-10T23:49:41.931Z,1.00
2023-01-10T23:52:10.824Z,1.07
2023-01-10T23:54:37.533Z,1.10
2023-01-10T23:57:06.389Z,1.10
2023-01-10T23:59:35.587Z,1.13
